Time;durP1;ratioP1;P1;durP2;ratioP2;P2;SDS_P1;SDS_P2;PMS_P1;PMS_P2;Temp;Humidity;BMP_temperature;BMP_pressure;BME280_temperature;BME280_humidity;BME280_pressure;Samples;Min_cycle;Max_cycle;Signal;HPM_P1;HPM_P2
2022/11/28 00:00:54;;;;;;;5.55;3.78;;;;;;;3.65;100.00;98893.50;5092409;28;20083;-78
2022/11/28 00:03:23;;;;;;;5.57;3.45;;;;;;;3.52;100.00;98885.75;5088614;28;20075;-78
2022/11/28 00:05:50;;;;;;;5.53;3.53;;;;;;;3.64;100.00;98899.88;5091257;28;20400;-77
2022/11/28 00:08:17;;;;;;;4.78;3.20;;;;;;;3.53;100.00;98892.84;5083306;28;20051;-78
2022/11/28 00:10:43;;;;;;;6.18;3.30;;;;;;;3.45;100.00;98879.31;5070172;28;20055;-78
2022/11/28 00:13:10;;;;;;;5.35;3.35;;;;;;;3.59;100.00;98908.38;5085057;28;20057;-78
2022/11/28 00:15:37;;;;;;;5.57;3.38;;;;;;;3.61;100.00;98917.13;5074147;28;20129;-78
2022/11/28 00:18:03;;;;;;;4.00;3.28;;;;;;;3.49;100.00;98911.09;5077508;28;20075;-78
2022/11/28 00:20:32;;;;;;;4.82;3.03;;;;;;;3.52;100.00;98913.50;5081346;28;20052;-78
2022/11/28 00:22:58;;;;;;;5.72;2.97;;;;;;;3.51;100.00;98901.03;5077436;28;20044;-76
2022/11/28 00:25:25;;;;;;;6.50;3.17;;;;;;;3.56;100.00;98902.47;5086043;28;20114;-76
2022/11/28 00:27:52;;;;;;;4.05;2.90;;;;;;;3.46;100.00;98889.91;5088881;28;20128;-76
2022/11/28 00:30:18;;;;;;;5.78;3.25;;;;;;;3.47;100.00;98888.06;5083305;28;20538;-78
2022/11/28 00:32:45;;;;;;;5.68;3.45;;;;;;;3.51;100.00;98908.28;5072623;28;20076;-76
2022/11/28 00:35:12;;;;;;;5.97;3.65;;;;;;;3.51;100.00;98917.19;5080484;28;20036;-76
2022/11/28 00:37:39;;;;;;;4.80;2.97;;;;;;;3.34;100.00;98896.41;5073907;28;20045;-76
2022/11/28 00:40:07;;;;;;;7.85;3.50;;;;;;;3.52;100.00;98918.00;5073202;28;20068;-76
2022/11/28 00:42:34;;;;;;;6.03;3.78;;;;;;;3.46;100.00;98905.16;5074754;28;20134;-79
2022/11/28 00:45:01;;;;;;;8.50;3.25;;;;;;;3.41;100.00;98908.28;5077420;28;20044;-78
2022/11/28 00:47:27;;;;;;;4.82;3.55;;;;;;;3.48;100.00;98916.63;5085295;28;20050;-76
2022/11/28 00:49:54;;;;;;;5.38;3.65;;;;;;;3.44;100.00;98921.44;5078431;28;20089;-76
2022/11/28 00:52:23;;;;;;;4.93;3.28;;;;;;;3.40;100.00;98905.75;5079057;28;20040;-77
2022/11/28 00:54:51;;;;;;;7.15;4.13;;;;;;;3.45;100.00;98915.06;5081761;28;20052;-77
2022/11/28 00:57:18;;;;;;;4.05;3.10;;;;;;;3.38;100.00;98903.19;5083041;28;20048;-77
2022/11/28 00:59:44;;;;;;;8.35;3.53;;;;;;;3.43;100.00;98906.28;5079126;28;20392;-77
2022/11/28 01:02:11;;;;;;;7.10;3.55;;;;;;;3.47;100.00;98899.63;5077369;28;20509;-77
2022/11/28 01:04:37;;;;;;;10.48;3.80;;;;;;;3.47;100.00;98907.69;5077348;28;20052;-77
2022/11/28 01:07:04;;;;;;;6.43;3.67;;;;;;;3.23;100.00;98886.69;5085894;28;20048;-77
2022/11/28 01:09:30;;;;;;;8.43;4.18;;;;;;;3.33;100.00;98913.56;5081404;28;20063;-77
2022/11/28 01:11:58;;;;;;;5.97;3.70;;;;;;;3.32;100.00;98901.09;5081733;28;20070;-77
2022/11/28 01:14:26;;;;;;;6.45;3.65;;;;;;;3.23;100.00;98894.75;5085115;28;20040;-77
2022/11/28 01:16:53;;;;;;;4.35;3.10;;;;;;;3.16;100.00;98889.13;5080299;28;20048;-77
2022/11/28 01:19:20;;;;;;;5.35;3.70;;;;;;;3.19;100.00;98882.59;5079999;28;20073;-77
2022/11/28 01:21:46;;;;;;;6.65;3.83;;;;;;;3.27;100.00;98884.59;5075110;28;20044;-77
2022/11/28 01:24:13;;;;;;;4.40;3.17;;;;;;;3.15;100.00;98865.94;5077965;28;20036;-77
2022/11/28 01:26:41;;;;;;;5.50;3.90;;;;;;;3.24;100.00;98866.91;5086534;28;20040;-77
2022/11/28 01:29:10;;;;;;;5.72;3.30;;;;;;;3.17;100.00;98852.34;5084231;28;20044;-77
2022/11/28 01:31:37;;;;;;;5.47;3.20;;;;;;;3.11;100.00;98851.09;5076770;28;20056;-77
2022/11/28 01:34:03;;;;;;;6.22;3.70;;;;;;;3.14;100.00;98849.94;5072791;28;20388;-77
2022/11/28 01:36:30;;;;;;;4.38;3.08;;;;;;;3.24;100.00;98848.09;5077846;28;20052;-77
2022/11/28 01:38:57;;;;;;;5.10;3.15;;;;;;;3.15;100.00;98841.75;5080985;28;20048;-77
2022/11/28 01:41:27;;;;;;;5.40;3.45;;;;;;;3.17;100.00;98852.34;5074503;28;20072;-77
2022/11/28 01:43:59;;;;;;;5.10;3.10;;;;;;;3.03;100.00;98842.91;5081980;28;20529;-77
2022/11/28 01:46:28;;;;;;;7.68;3.58;;;;;;;3.15;100.00;98873.16;5087015;28;20046;-77
2022/11/28 01:48:58;;;;;;;5.07;3.30;;;;;;;3.03;100.00;98861.72;5080638;28;20089;-77
2022/11/28 01:51:25;;;;;;;5.60;3.10;;;;;;;3.21;100.00;98874.38;5079212;28;20066;-77
2022/11/28 01:53:52;;;;;;;5.15;3.53;;;;;;;3.12;100.00;98871.59;5081302;28;20492;-77
2022/11/28 01:56:20;;;;;;;4.57;2.83;;;;;;;3.11;100.00;98869.03;5080443;28;20040;-77
2022/11/28 01:58:51;;;;;;;6.00;3.42;;;;;;;3.11;100.00;98869.03;5082655;28;20488;-77
2022/11/28 02:01:19;;;;;;;5.80;3.35;;;;;;;3.06;100.00;98855.22;5078355;28;20435;-77
2022/11/28 02:03:49;;;;;;;4.63;3.05;;;;;;;3.12;100.00;98855.47;5079939;28;20067;-77
2022/11/28 02:06:19;;;;;;;4.40;2.85;;;;;;;3.03;100.00;98842.91;5079817;28;20472;-77
2022/11/28 02:08:46;;;;;;;3.15;2.47;;;;;;;3.08;100.00;98864.81;5072648;28;20480;-77
2022/11/28 02:11:35;;;;;;;4.50;2.95;;;;;;;3.07;100.00;98860.44;5079400;28;20040;-77
2022/11/28 02:14:15;;;;;;;6.78;3.25;;;;;;;3.03;100.00;98840.22;5056681;28;20048;-77
2022/11/28 02:16:53;;;;;;;5.38;3.08;;;;;;;3.13;100.00;98838.38;5072700;28;20401;-77
2022/11/28 02:19:56;;;;;;;5.60;3.75;;;;;;;3.24;100.00;98839.16;5092237;28;20066;-77
2022/11/28 02:22:27;;;;;;;6.13;3.80;;;;;;;3.31;100.00;98837.59;5076307;28;20040;-77
2022/11/28 02:25:22;;;;;;;4.90;3.40;;;;;;;3.23;100.00;98810.63;5072580;28;20052;-77
2022/11/28 02:28:35;;;;;;;5.15;3.20;;;;;;;3.25;100.00;98805.94;5077479;28;20541;-77
2022/11/28 02:31:16;;;;;;;5.13;3.33;;;;;;;3.19;100.00;98786.75;5061701;28;20483;-77
2022/11/28 02:33:48;;;;;;;4.78;3.00;;;;;;;3.26;100.00;98791.53;5086691;28;20063;-77
2022/11/28 02:36:19;;;;;;;5.45;3.47;;;;;;;3.22;100.00;98782.06;5086299;28;20498;-77
2022/11/28 02:38:55;;;;;;;5.38;3.13;;;;;;;3.24;100.00;98785.44;5078220;28;20057;-77
2022/11/28 02:41:31;;;;;;;4.82;2.97;;;;;;;3.24;100.00;98782.75;5085671;28;20040;-77
2022/11/28 02:44:06;;;;;;;4.03;3.08;;;;;;;3.24;100.00;98783.63;5070425;28;20110;-77
2022/11/28 02:46:41;;;;;;;6.70;3.50;;;;;;;3.20;100.00;98771.47;5071024;28;20071;-77
2022/11/28 02:49:16;;;;;;;6.25;3.65;;;;;;;3.22;100.00;98752.50;5079765;28;20045;-77
2022/11/28 02:51:47;;;;;;;6.80;3.28;;;;;;;3.17;100.00;98731.47;5089360;28;20057;-77
2022/11/28 02:54:17;;;;;;;3.95;3.10;;;;;;;3.33;100.00;98733.53;5075690;28;20473;-77
2022/11/28 02:56:47;;;;;;;;;;;;;;;3.39;100.00;98746.38;5083274;28;20052;-77
2022/11/28 02:59:33;;;;;;;5.20;2.67;;;;;;;3.42;100.00;98764.88;5090071;28;19920;-77
2022/11/28 03:02:01;;;;;;;6.53;3.50;;;;;;;3.43;100.00;98760.34;5078040;28;20044;-77
2022/11/28 03:04:41;;;;;;;4.85;3.20;;;;;;;3.33;100.00;98747.78;5083215;28;20044;-77
2022/11/28 03:07:21;;;;;;;5.95;3.53;;;;;;;3.46;100.00;98789.59;5087170;28;22066;-77
2022/11/28 03:09:59;;;;;;;5.30;3.08;;;;;;;3.41;100.00;98776.59;5088070;28;20048;-78
2022/11/28 03:12:38;;;;;;;5.07;3.70;;;;;;;3.39;100.00;98775.06;5087465;28;20395;-77
2022/11/28 03:15:07;;;;;;;5.95;3.63;;;;;;;3.34;100.00;98757.56;5088013;28;20040;-78
2022/11/28 03:17:43;;;;;;;5.95;3.70;;;;;;;3.40;100.00;98733.75;5083515;28;20054;-77
2022/11/28 03:20:20;;;;;;;7.03;3.85;;;;;;;3.25;100.00;98725.34;5088763;28;20051;-77
2022/11/28 03:22:59;;;;;;;6.30;3.58;;;;;;;3.30;100.00;98753.47;5087660;28;20054;-77
2022/11/28 03:25:30;;;;;;;5.63;3.97;;;;;;;3.27;100.00;98751.09;5086343;28;20051;-78
2022/11/28 03:28:03;;;;;;;4.80;3.22;;;;;;;3.30;100.00;98756.16;5088874;28;20048;-77
2022/11/28 03:30:34;;;;;;;3.63;3.20;;;;;;;3.35;100.00;98761.09;5080837;28;20045;-77
2022/11/28 03:33:02;;;;;;;7.53;3.53;;;;;;;3.19;100.00;98740.22;5078400;28;20052;-77
2022/11/28 03:35:34;;;;;;;5.25;3.22;;;;;;;3.33;100.00;98749.66;5080017;28;20064;-77
2022/11/28 03:38:07;;;;;;;5.55;3.10;;;;;;;3.34;100.00;98749.50;5073876;28;20055;-77
2022/11/28 03:40:39;;;;;;;5.60;3.08;;;;;;;3.27;100.00;98753.78;5079016;28;20047;-77
2022/11/28 03:43:10;;;;;;;4.32;3.28;;;;;;;3.36;100.00;98773.53;5089145;28;20044;-77
2022/11/28 03:45:40;;;;;;;7.38;3.72;;;;;;;3.33;100.00;98760.41;5073838;28;20055;-77
2022/11/28 03:48:09;;;;;;;;;;;;;;;3.39;100.00;98770.53;5086590;28;20044;-77
2022/11/28 03:50:43;;;;;;;4.72;3.60;;;;;;;3.36;100.00;98755.56;5088201;28;20016;-77
2022/11/28 03:53:14;;;;;;;4.97;3.15;;;;;;;3.31;100.00;98743.56;5082526;28;20097;-77
2022/11/28 03:55:48;;;;;;;8.68;3.35;;;;;;;3.28;100.00;98733.09;5076437;28;20054;-77
2022/11/28 03:58:25;;;;;;;5.18;2.90;;;;;;;3.23;100.00;98738.94;5075624;28;20474;-77
2022/11/28 04:00:59;;;;;;;6.32;2.78;;;;;;;3.25;100.00;98733.41;5083064;28;20127;-78
2022/11/28 04:03:36;;;;;;;7.28;3.20;;;;;;;3.31;100.00;98725.63;5076856;28;20064;-77
2022/11/28 04:06:13;;;;;;;5.60;3.25;;;;;;;3.31;100.00;98735.50;5079003;28;20048;-77
2022/11/28 04:08:43;;;;;;;5.43;3.42;;;;;;;3.36;100.00;98727.84;5078821;28;20056;-77
2022/11/28 04:11:15;;;;;;;8.30;3.40;;;;;;;3.42;100.00;98723.69;5080467;28;20056;-77
2022/11/28 04:13:49;;;;;;;7.07;3.15;;;;;;;3.45;100.00;98721.56;5085268;28;20048;-77
2022/11/28 04:16:20;;;;;;;5.07;3.38;;;;;;;3.29;100.00;98724.06;5083322;28;20072;-77
2022/11/28 04:18:52;;;;;;;5.25;3.35;;;;;;;3.33;100.00;98731.69;5085576;28;20049;-77
2022/11/28 04:21:26;;;;;;;4.88;3.38;;;;;;;3.36;100.00;98720.63;5082906;28;20080;-77
2022/11/28 04:23:57;;;;;;;8.35;3.38;;;;;;;3.31;100.00;98695.19;5076800;28;20127;-77
2022/11/28 04:26:30;;;;;;;6.38;3.22;;;;;;;3.30;100.00;98718.53;5076677;28;20063;-77
2022/11/28 04:29:00;;;;;;;5.13;2.75;;;;;;;3.34;100.00;98708.31;5085184;28;20049;-77
2022/11/28 04:31:26;;;;;;;;;;;;;;;3.47;100.00;98732.19;5082312;28;20043;-77
2022/11/28 04:33:58;;;;;;;6.15;3.90;;;;;;;3.53;100.00;98736.94;5083440;28;20229;-77
2022/11/28 04:36:28;;;;;;;5.30;3.15;;;;;;;3.42;100.00;98719.19;5080667;28;20255;-77
2022/11/28 04:38:57;;;;;;;6.72;3.92;;;;;;;3.43;100.00;98723.53;5077525;28;20044;-77
2022/11/28 04:41:28;;;;;;;6.22;3.38;;;;;;;3.42;100.00;98734.44;5074721;28;20054;-77
2022/11/28 04:44:00;;;;;;;10.27;5.55;;;;;;;3.46;100.00;98747.47;5079743;28;20047;-77
2022/11/28 04:46:32;;;;;;;9.80;5.43;;;;;;;3.41;100.00;98732.78;5094664;28;20189;-78
2022/11/28 04:48:59;;;;;;;7.95;4.25;;;;;;;3.34;100.00;98730.69;5077936;28;20040;-78
2022/11/28 04:51:34;;;;;;;6.05;4.07;;;;;;;3.33;100.00;98736.22;5081443;28;20050;-77
2022/11/28 04:54:05;;;;;;;7.03;3.80;;;;;;;3.18;100.00;98728.63;5080549;28;20045;-77
2022/11/28 04:56:41;;;;;;;7.57;3.95;;;;;;;3.10;100.00;98725.00;5087656;28;20898;-77
2022/11/28 04:59:09;;;;;;;6.90;3.60;;;;;;;3.19;100.00;98734.84;5087351;28;20053;-78
2022/11/28 05:01:38;;;;;;;5.28;3.35;;;;;;;3.14;100.00;98729.91;5083396;28;20048;-77
2022/11/28 05:04:05;;;;;;;8.35;3.47;;;;;;;3.07;100.00;98710.03;5085144;28;20060;-77
2022/11/28 05:06:36;;;;;;;5.53;3.20;;;;;;;3.21;100.00;98724.81;5085292;28;20059;-77
2022/11/28 05:09:03;;;;;;;4.55;3.03;;;;;;;3.22;100.00;98720.28;5089519;28;20055;-77
2022/11/28 05:11:30;;;;;;;5.10;3.47;;;;;;;3.19;100.00;98724.97;5086243;28;20055;-77
2022/11/28 05:13:57;;;;;;;7.13;3.60;;;;;;;3.09;100.00;98694.59;5090334;28;20048;-77
2022/11/28 05:16:23;;;;;;;4.45;3.05;;;;;;;3.23;100.00;98712.06;5089863;28;20047;-77
2022/11/28 05:18:50;;;;;;;5.72;3.15;;;;;;;3.23;100.00;98704.00;5088422;28;20044;-77
2022/11/28 05:21:17;;;;;;;6.95;2.97;;;;;;;3.17;100.00;98700.06;5072729;28;20051;-77
2022/11/28 05:23:46;;;;;;;9.80;4.63;;;;;;;3.28;100.00;98725.06;5078959;28;20059;-77
2022/11/28 05:26:15;;;;;;;12.13;5.82;;;;;;;3.09;100.00;98713.41;5078177;28;20050;-76
2022/11/28 05:28:43;;;;;;;23.20;6.15;;;;;;;3.08;100.00;98735.88;5083536;28;20099;-77
2022/11/28 05:31:10;;;;;;;12.52;6.95;;;;;;;3.13;100.00;98733.63;5076456;28;20491;-81
2022/11/28 05:33:37;;;;;;;22.77;8.23;;;;;;;2.94;100.00;98715.72;5083240;28;20051;-78
2022/11/28 05:36:04;;;;;;;9.48;5.15;;;;;;;2.89;100.00;98706.41;5076279;28;20492;-78
2022/11/28 05:38:32;;;;;;;7.13;4.35;;;;;;;2.94;100.00;98731.84;5084125;28;20051;-78
2022/11/28 05:41:01;;;;;;;4.35;3.10;;;;;;;2.83;100.00;98711.41;5076007;28;20126;-78
2022/11/28 05:43:28;;;;;;;5.80;3.88;;;;;;;3.05;100.00;98738.88;5073694;28;20283;-79
2022/11/28 05:45:55;;;;;;;8.52;4.25;;;;;;;2.96;100.00;98750.50;5082565;28;20060;-79
2022/11/28 05:48:22;;;;;;;5.22;3.75;;;;;;;2.85;100.00;98737.25;5081190;28;20046;-78
2022/11/28 05:50:49;;;;;;;7.80;3.45;;;;;;;2.88;100.00;98745.84;5080831;28;20381;-78
2022/11/28 05:53:20;;;;;;;5.68;3.78;;;;;;;2.91;100.00;98750.09;5086514;28;20047;-78
2022/11/28 05:55:47;;;;;;;5.85;3.30;;;;;;;2.78;100.00;98727.06;5090880;28;20050;-78
2022/11/28 05:58:14;;;;;;;8.02;4.22;;;;;;;2.93;100.00;98735.50;5084397;28;20047;-78
2022/11/28 06:00:41;;;;;;;9.25;3.85;;;;;;;2.84;100.00;98736.38;5089404;28;20071;-78
2022/11/28 06:03:08;;;;;;;6.65;3.97;;;;;;;2.78;100.00;98739.66;5079357;28;20415;-78
2022/11/28 06:05:34;;;;;;;10.20;3.95;;;;;;;2.77;100.00;98736.16;5085665;28;20055;-78
2022/11/28 06:08:04;;;;;;;7.55;3.65;;;;;;;2.83;100.00;98738.25;5079590;28;20048;-78
2022/11/28 06:10:31;;;;;;;7.97;4.30;;;;;;;2.69;100.00;98732.50;5082710;28;20040;-78
2022/11/28 06:12:57;;;;;;;7.82;3.90;;;;;;;2.72;100.00;98745.63;5079299;28;20044;-78
2022/11/28 06:15:25;;;;;;;9.18;4.57;;;;;;;2.69;100.00;98729.81;5090296;28;20048;-79
2022/11/28 06:17:52;;;;;;;6.38;4.40;;;;;;;2.90;100.00;98751.06;5080896;28;20122;-78
2022/11/28 06:20:18;;;;;;;7.72;3.80;;;;;;;2.87;100.00;98744.16;5075438;28;20045;-78
2022/11/28 06:22:46;;;;;;;5.72;3.85;;;;;;;2.70;100.00;98731.50;5077168;28;20389;-78
2022/11/28 06:25:13;;;;;;;6.75;3.92;;;;;;;2.59;100.00;98728.00;5073878;28;20045;-78
2022/11/28 06:27:39;;;;;;;8.57;4.25;;;;;;;2.54;100.00;98732.94;5072065;28;20044;-78
2022/11/28 06:30:07;;;;;;;5.88;4.10;;;;;;;2.54;100.00;98748.19;5078319;28;20134;-78
2022/11/28 06:32:35;;;;;;;7.10;4.15;;;;;;;2.41;100.00;98743.97;5080503;28;20044;-78
2022/11/28 06:35:02;;;;;;;8.82;4.88;;;;;;;2.63;100.00;98750.88;5077731;28;20052;-78
2022/11/28 06:37:28;;;;;;;8.15;5.15;;;;;;;2.68;100.00;98728.09;5079291;28;20052;-78
2022/11/28 06:39:55;;;;;;;7.40;4.35;;;;;;;2.68;100.00;98753.13;5070600;28;20488;-79
2022/11/28 06:42:21;;;;;;;8.77;3.90;;;;;;;2.55;100.00;98758.78;5082501;28;20403;-78
2022/11/28 06:44:48;;;;;;;7.72;4.30;;;;;;;2.40;100.00;98755.69;5083758;28;20040;-78
2022/11/28 06:47:15;;;;;;;8.40;4.25;;;;;;;2.38;100.00;98752.31;5078620;28;20079;-79
2022/11/28 06:49:43;;;;;;;7.95;4.72;;;;;;;2.33;100.00;98751.88;5080113;28;20078;-78
2022/11/28 06:52:09;;;;;;;7.15;4.47;;;;;;;2.16;100.00;98736.53;5081712;28;20056;-79
2022/11/28 06:54:36;;;;;;;8.63;4.47;;;;;;;2.36;100.00;98738.19;5085628;28;20085;-78
2022/11/28 06:57:02;;;;;;;7.45;4.07;;;;;;;2.34;100.00;98739.34;5082356;28;20051;-78
2022/11/28 06:59:32;;;;;;;9.90;5.43;;;;;;;2.26;100.00;98735.53;5082715;28;20079;-78
2022/11/28 07:02:02;;;;;;;8.63;4.78;;;;;;;2.32;100.00;98749.34;5097666;28;20056;-79
2022/11/28 07:04:29;;;;;;;10.55;5.25;;;;;;;2.30;100.00;98746.81;5090516;28;20423;-78
2022/11/28 07:06:57;;;;;;;7.80;4.43;;;;;;;2.38;100.00;98755.00;5091950;28;20044;-78
2022/11/28 07:09:23;;;;;;;7.25;4.15;;;;;;;2.44;100.00;98741.00;5089192;28;20048;-78
2022/11/28 07:12:09;;;;;;;7.97;3.97;;;;;;;2.37;100.00;98707.69;5141352;27;20396;-78
2022/11/28 07:14:37;;;;;;;8.65;3.90;;;;;;;2.44;100.00;98716.88;5146320;27;20061;-79
2022/11/28 07:17:03;;;;;;;4.93;3.33;;;;;;;2.31;100.00;98724.38;5150334;27;20046;-79
2022/11/28 07:19:30;;;;;;;7.07;3.50;;;;;;;2.39;100.00;98750.47;5147778;27;20051;-78
2022/11/28 07:21:56;;;;;;;6.97;3.85;;;;;;;2.39;100.00;98729.00;5142714;27;20077;-78
2022/11/28 07:24:23;;;;;;;7.32;4.30;;;;;;;2.38;100.00;98730.84;5141685;27;20043;-78
2022/11/28 07:26:49;;;;;;;7.10;3.92;;;;;;;2.54;100.00;98738.28;5148153;27;20394;-78
2022/11/28 07:29:18;;;;;;;6.47;3.78;;;;;;;2.54;100.00;98740.16;5150894;27;20054;-78
2022/11/28 07:31:45;;;;;;;8.57;5.03;;;;;;;2.52;100.00;98752.88;5148327;27;20114;-78
2022/11/28 07:34:12;;;;;;;7.82;4.55;;;;;;;2.44;100.00;98735.66;5135575;27;20716;-78
2022/11/28 07:36:39;;;;;;;7.20;4.70;;;;;;;2.51;100.00;98740.44;5146092;27;20035;-77
2022/11/28 07:39:08;;;;;;;9.95;4.93;;;;;;;2.51;100.00;98752.00;5146721;27;20050;-78
2022/11/28 07:41:35;;;;;;;9.03;4.97;;;;;;;2.62;100.00;98759.03;5149766;27;20050;-79
2022/11/28 07:44:04;;;;;;;8.90;4.45;;;;;;;2.78;100.00;98786.13;5143807;27;20054;-78
2022/11/28 07:46:32;;;;;;;8.52;5.10;;;;;;;2.62;100.00;98767.09;5146140;27;20050;-78
2022/11/28 07:49:00;;;;;;;6.88;4.75;;;;;;;2.61;100.00;98768.94;5146678;27;20059;-78
2022/11/28 07:51:29;;;;;;;12.55;4.40;;;;;;;2.67;100.00;98770.22;5150591;27;20043;-78
2022/11/28 07:53:56;;;;;;;13.90;5.40;;;;;;;2.80;100.00;98783.31;5148119;27;20053;-79
2022/11/28 07:56:27;;;;;;;9.32;4.45;;;;;;;2.90;100.00;98783.31;5141586;27;20470;-79
2022/11/28 07:58:54;;;;;;;8.38;4.63;;;;;;;2.71;100.00;98757.34;5148126;27;20047;-79
2022/11/28 08:01:23;;;;;;;8.90;5.50;;;;;;;3.03;100.00;98772.22;5146647;27;20055;-78
2022/11/28 08:03:52;;;;;;;10.60;5.85;;;;;;;3.00;100.00;98766.16;5147156;27;20345;-78
2022/11/28 08:06:20;;;;;;;9.88;5.53;;;;;;;2.96;100.00;98753.19;5147625;27;20058;-78
2022/11/28 08:08:47;;;;;;;9.23;4.72;;;;;;;3.01;100.00;98754.44;5147897;27;20129;-79
2022/11/28 08:11:16;;;;;;;9.27;5.22;;;;;;;3.05;100.00;98756.81;5147976;27;20043;-78
2022/11/28 08:13:43;;;;;;;9.55;4.93;;;;;;;3.14;100.00;98755.94;5147786;27;20039;-79
2022/11/28 08:16:13;;;;;;;6.85;3.83;;;;;;;3.11;100.00;98751.69;5146296;27;20050;-78
2022/11/28 08:18:40;;;;;;;6.80;4.15;;;;;;;3.19;100.00;98749.13;5146237;27;20042;-79
2022/11/28 08:21:10;;;;;;;7.28;4.40;;;;;;;3.18;100.00;98743.91;5147210;27;20469;-79
2022/11/28 08:23:38;;;;;;;7.90;4.30;;;;;;;3.42;100.00;98746.06;5133084;27;20490;-79
2022/11/28 08:26:06;;;;;;;11.68;6.03;;;;;;;3.49;100.00;98754.34;5131144;27;20722;-79
2022/11/28 08:28:33;;;;;;;8.82;5.28;;;;;;;3.58;100.00;98758.00;5133764;27;20362;-78
2022/11/28 08:31:02;;;;;;;7.00;3.40;;;;;;;3.68;100.00;98742.66;5133820;27;20061;-79
2022/11/28 08:33:29;;;;;;;5.82;3.10;;;;;;;3.81;100.00;98751.22;5133227;27;20039;-78
2022/11/28 08:35:55;;;;;;;5.43;2.75;;;;;;;3.97;100.00;98760.44;5130129;27;20125;-78
2022/11/28 08:38:23;;;;;;;7.00;3.53;;;;;;;3.98;100.00;98762.13;5131516;27;20111;-79
2022/11/28 08:40:50;;;;;;;7.72;4.00;;;;;;;3.80;100.00;98743.28;5133582;27;20470;-79
2022/11/28 08:43:19;;;;;;;7.35;4.00;;;;;;;3.85;100.00;98749.03;5133209;27;20057;-79
2022/11/28 08:45:45;;;;;;;6.82;4.20;;;;;;;3.80;100.00;98751.34;5132957;27;20043;-78
2022/11/28 08:48:12;;;;;;;9.52;4.13;;;;;;;3.74;100.00;98746.59;5132752;27;20047;-78
2022/11/28 08:50:45;;;;;;;6.40;3.80;;;;;;;3.85;100.00;98760.66;5132911;27;20043;-79
2022/11/28 08:53:11;;;;;;;35.58;15.13;;;;;;;3.89;100.00;98753.97;5132455;27;20047;-78
2022/11/28 08:55:41;;;;;;;37.47;16.77;;;;;;;3.88;100.00;98757.69;5129743;27;20052;-79
2022/11/28 08:58:07;;;;;;;14.53;7.73;;;;;;;3.88;100.00;98743.38;5133419;27;20086;-78
2022/11/28 09:00:34;;;;;;;17.85;8.85;;;;;;;4.05;100.00;98766.75;5133103;27;20295;-79
2022/11/28 09:03:00;;;;;;;15.82;7.72;;;;;;;4.05;100.00;98749.75;5132688;27;20051;-79
2022/11/28 09:05:28;;;;;;;10.23;5.55;;;;;;;4.12;100.00;98731.16;5129506;27;20050;-79
2022/11/28 09:07:55;;;;;;;9.48;6.03;;;;;;;4.12;100.00;98728.47;5133287;27;20134;-78
2022/11/28 09:10:22;;;;;;;22.90;16.23;;;;;;;4.18;100.00;98720.59;5132772;27;20049;-79
2022/11/28 09:12:50;;;;;;;8.10;4.90;;;;;;;4.31;100.00;98720.22;5131547;27;20176;-79
2022/11/28 09:15:17;;;;;;;6.43;4.95;;;;;;;4.31;100.00;98730.16;5126448;27;20047;-78
2022/11/28 09:17:44;;;;;;;7.30;4.10;;;;;;;4.46;100.00;98743.88;5128392;27;20043;-79
2022/11/28 09:20:12;;;;;;;8.60;3.70;;;;;;;4.46;100.00;98743.88;5132900;27;20082;-80
2022/11/28 09:22:39;;;;;;;9.27;4.05;;;;;;;4.58;100.00;98762.31;5132309;27;20598;-79
2022/11/28 09:25:07;;;;;;;6.75;4.25;;;;;;;4.60;100.00;98759.47;5129324;27;20050;-79
2022/11/28 09:27:34;;;;;;;10.50;4.13;;;;;;;4.65;100.00;98761.69;5131628;27;20121;-79
2022/11/28 09:30:02;;;;;;;10.52;4.25;;;;;;;4.51;100.00;98755.88;5132591;27;20459;-80
2022/11/28 09:32:28;;;;;;;8.27;4.28;;;;;;;4.61;100.00;98742.34;5131887;27;20055;-79
2022/11/28 09:34:55;;;;;;;6.05;4.13;;;;;;;4.60;100.00;98746.84;5127722;27;20120;-80
2022/11/28 09:37:21;;;;;;;5.65;3.75;;;;;;;4.73;100.00;98759.09;5132599;27;20118;-79
2022/11/28 09:39:48;;;;;;;5.75;3.63;;;;;;;4.69;100.00;98725.38;5132484;27;20050;-80
2022/11/28 09:42:20;;;;;;;5.55;3.08;;;;;;;4.86;100.00;98746.00;5132112;27;20053;-80
2022/11/28 09:44:52;;;;;;;4.32;2.70;;;;;;;4.85;100.00;98735.41;5129923;27;20050;-79
2022/11/28 09:47:28;;;;;;;6.20;2.97;;;;;;;4.99;99.65;98747.47;5131073;27;20043;-80
2022/11/28 09:49:59;;;;;;;5.63;3.17;;;;;;;5.00;97.22;98743.75;5132138;27;20047;-80
2022/11/28 09:52:31;;;;;;;12.20;3.65;;;;;;;5.02;97.60;98726.41;5131924;27;20043;-80
2022/11/28 09:55:09;;;;;;;4.90;2.72;;;;;;;5.13;99.99;98744.16;5126032;27;20136;-80
2022/11/28 09:57:40;;;;;;;5.40;3.05;;;;;;;5.23;100.00;98760.22;5132196;27;20051;-79
2022/11/28 10:00:15;;;;;;;4.85;2.35;;;;;;;5.11;100.00;98751.56;5124115;27;20043;-80
2022/11/28 10:02:54;;;;;;;8.75;3.42;;;;;;;5.29;97.67;98762.28;5129665;27;20046;-80
2022/11/28 10:05:28;;;;;;;6.70;3.28;;;;;;;5.33;98.73;98769.03;5120276;27;20050;-80
2022/11/28 10:08:05;;;;;;;4.63;3.15;;;;;;;5.41;100.00;98779.84;5131989;27;20055;-80
2022/11/28 10:10:39;;;;;;;5.20;3.00;;;;;;;5.53;100.00;98780.41;5131992;27;20062;-80
2022/11/28 10:13:15;;;;;;;7.63;3.78;;;;;;;5.48;100.00;98762.03;5131244;27;20051;-80
2022/11/28 10:15:49;;;;;;;10.50;4.68;;;;;;;5.53;100.00;98760.69;5127361;27;20067;-80
2022/11/28 10:18:35;;;;;;;6.40;3.40;;;;;;;5.67;94.23;98741.19;5131933;27;20070;-80
2022/11/28 10:21:05;;;;;;;3.85;2.70;;;;;;;5.76;94.50;98748.28;5131663;27;20146;-80
2022/11/28 10:23:38;;;;;;;6.45;2.95;;;;;;;5.70;94.77;98740.84;5130833;27;20448;-80
2022/11/28 10:26:08;;;;;;;4.30;2.60;;;;;;;5.79;92.12;98741.72;5129604;27;20138;-80
2022/11/28 10:28:37;;;;;;;4.40;2.80;;;;;;;5.82;92.67;98731.44;5130882;27;20490;-80
2022/11/28 10:31:10;;;;;;;5.63;3.00;;;;;;;5.89;94.67;98728.09;5131294;27;20051;-80
2022/11/28 10:33:44;;;;;;;6.28;2.78;;;;;;;5.90;92.11;98729.78;5130412;27;20047;-80
2022/11/28 10:36:16;;;;;;;4.32;2.40;;;;;;;5.89;89.08;98728.09;5131392;27;20099;-80
2022/11/28 10:38:43;;;;;;;5.88;3.38;;;;;;;5.94;89.06;98718.47;5131766;27;20091;-80
2022/11/28 10:41:16;;;;;;;3.92;2.30;;;;;;;5.90;88.19;98740.56;5130885;27;20104;-80
2022/11/28 10:43:48;;;;;;;5.45;2.80;;;;;;;5.88;90.86;98756.91;5129361;27;20126;-80
2022/11/28 10:46:35;;;;;;;6.40;3.33;;;;;;;5.89;93.46;98750.53;5127866;27;20432;-80
2022/11/28 10:49:17;;;;;;;5.90;2.40;;;;;;;5.95;94.28;98741.75;5130870;27;20475;-80
2022/11/28 10:51:52;;;;;;;10.48;3.13;;;;;;;5.90;98.80;98727.06;5124657;27;20127;-80
2022/11/28 10:54:30;;;;;;;6.97;3.25;;;;;;;6.05;98.62;98751.59;5129343;27;20039;-80
2022/11/28 10:57:06;;;;;;;12.38;4.63;;;;;;;6.11;99.04;98754.50;5129475;27;20043;-80
2022/11/28 10:59:44;;;;;;;9.85;5.05;;;;;;;6.25;93.75;98747.59;5123038;27;20505;-80
2022/11/28 11:02:20;;;;;;;5.93;3.88;;;;;;;6.32;93.18;98735.09;5130122;27;20108;-80
2022/11/28 11:04:48;;;;;;;6.22;3.58;;;;;;;6.26;91.31;98743.00;5131825;27;20046;-81
2022/11/28 11:07:19;;;;;;;9.07;3.63;;;;;;;6.44;93.16;98740.16;5130957;27;20070;-80
2022/11/28 11:09:46;;;;;;;6.25;3.75;;;;;;;6.38;92.26;98723.63;5130247;27;20043;-80
2022/11/28 11:12:19;;;;;;;6.03;3.05;;;;;;;6.68;90.36;98733.91;5130099;27;20050;-81
2022/11/28 11:14:46;;;;;;;4.55;2.47;;;;;;;6.87;86.25;98741.63;5130420;27;20492;-80
2022/11/28 11:17:25;;;;;;;3.47;2.70;;;;;;;6.91;85.43;98731.34;5130387;27;20055;-80
2022/11/28 11:19:54;;;;;;;5.10;2.33;;;;;;;6.79;87.07;98705.69;5119938;27;20039;-80
2022/11/28 11:22:22;;;;;;;4.20;2.72;;;;;;;7.01;86.35;98723.88;5126853;27;20440;-80
2022/11/28 11:25:06;;;;;;;5.22;2.65;;;;;;;7.00;84.28;98730.31;5122904;27;20482;-80
2022/11/28 11:27:33;;;;;;;5.45;3.17;;;;;;;7.01;86.05;98736.53;5130881;27;20047;-81
2022/11/28 11:29:59;;;;;;;5.38;3.45;;;;;;;7.18;86.03;98737.34;5126310;27;20062;-80
2022/11/28 11:32:28;;;;;;;6.13;3.40;;;;;;;6.96;87.50;98699.22;5124790;27;20043;-80
2022/11/28 11:34:58;;;;;;;7.03;2.58;;;;;;;7.02;85.47;98703.09;5127600;27;20055;-80
2022/11/28 11:37:33;;;;;;;3.55;2.50;;;;;;;7.21;84.62;98710.81;5130649;27;20047;-80
2022/11/28 11:40:01;;;;;;;4.13;2.53;;;;;;;7.18;83.77;98692.25;5130378;27;20126;-80
2022/11/28 11:42:29;;;;;;;6.13;2.88;;;;;;;7.25;84.67;98709.44;5130236;27;20040;-80
2022/11/28 11:44:57;;;;;;;6.43;2.60;;;;;;;7.16;88.71;98699.66;5130826;28;20103;-80
2022/11/28 11:47:42;;;;;;;4.88;2.42;;;;;;;7.26;84.82;98699.47;5129620;27;20447;-80